sensor_id;sensor_type;location;lat;lon;timestamp;P1;durP1;ratioP1;P2;durP2;ratioP2
4903;SDS011;2467;48.142;11.616;2023-11-19T00:00:03;1.65;;;1.55;;
4903;SDS011;2467;48.142;11.616;2023-11-19T00:00:42;1.77;;;1.67;;
4903;SDS011;2467;48.142;11.616;2023-11-19T00:01:24;1.65;;;1.55;;
4903;SDS011;2467;48.142;11.616;2023-11-19T00:01:56;1.60;;;1.50;;
4903;SDS011;2467;48.142;11.616;2023-11-19T00:02:29;1.90;;;1.63;;
4903;SDS011;2467;48.142;11.616;2023-11-19T00:03:01;1.73;;;1.63;;
4903;SDS011;2467;48.142;11.616;2023-11-19T00:03:35;1.35;;;1.25;;
4903;SDS011;2467;48.142;11.616;2023-11-19T00:04:07;1.85;;;1.75;;
4903;SDS011;2467;48.142;11.616;2023-11-19T00:04:39;2.38;;;2.28;;
4903;SDS011;2467;48.142;11.616;2023-11-19T00:05:12;1.50;;;1.35;;
4903;SDS011;2467;48.142;11.616;2023-11-19T00:05:45;2.17;;;2.08;;
4903;SDS011;2467;48.142;11.616;2023-11-19T00:06:17;1.88;;;1.77;;
4903;SDS011;2467;48.142;11.616;2023-11-19T00:06:50;2.28;;;2.17;;
4903;SDS011;2467;48.142;11.616;2023-11-19T00:07:22;2.05;;;1.90;;
4903;SDS011;2467;48.142;11.616;2023-11-19T00:08:06;1.98;;;1.88;;
4903;SDS011;2467;48.142;11.616;2023-11-19T00:08:40;1.92;;;1.77;;
4903;SDS011;2467;48.142;11.616;2023-11-19T00:09:11;1.95;;;1.70;;
4903;SDS011;2467;48.142;11.616;2023-11-19T00:09:44;1.70;;;1.60;;
4903;SDS011;2467;48.142;11.616;2023-11-19T00:10:16;1.80;;;1.70;;
4903;SDS011;2467;48.142;11.616;2023-11-19T00:10:50;1.50;;;1.40;;
4903;SDS011;2467;48.142;11.616;2023-11-19T00:11:22;1.50;;;1.40;;
4903;SDS011;2467;48.142;11.616;2023-11-19T00:11:55;2.05;;;1.48;;
4903;SDS011;2467;48.142;11.616;2023-11-19T00:12:27;2.05;;;1.95;;
4903;SDS011;2467;48.142;11.616;2023-11-19T00:12:59;2.45;;;2.03;;
4903;SDS011;2467;48.142;11.616;2023-11-19T00:13:31;2.08;;;1.98;;
4903;SDS011;2467;48.142;11.616;2023-11-19T00:14:04;1.90;;;1.80;;
4903;SDS011;2467;48.142;11.616;2023-11-19T00:14:39;2.10;;;2.00;;
4903;SDS011;2467;48.142;11.616;2023-11-19T00:15:12;1.80;;;1.70;;
4903;SDS011;2467;48.142;11.616;2023-11-19T00:15:44;1.95;;;1.85;;
4903;SDS011;2467;48.142;11.616;2023-11-19T00:16:18;1.65;;;1.55;;
4903;SDS011;2467;48.142;11.616;2023-11-19T00:16:50;1.77;;;1.67;;
4903;SDS011;2467;48.142;11.616;2023-11-19T00:17:22;1.83;;;1.73;;
4903;SDS011;2467;48.142;11.616;2023-11-19T00:17:55;2.10;;;2.00;;
4903;SDS011;2467;48.142;11.616;2023-11-19T00:18:32;2.40;;;2.30;;
4903;SDS011;2467;48.142;11.616;2023-11-19T00:19:04;2.38;;;1.85;;
4903;SDS011;2467;48.142;11.616;2023-11-19T00:19:36;1.50;;;1.40;;
4903;SDS011;2467;48.142;11.616;2023-11-19T00:20:08;2.20;;;2.10;;
4903;SDS011;2467;48.142;11.616;2023-11-19T00:20:42;1.90;;;1.70;;
4903;SDS011;2467;48.142;11.616;2023-11-19T00:21:16;1.90;;;1.80;;
4903;SDS011;2467;48.142;11.616;2023-11-19T00:21:47;2.10;;;1.90;;
4903;SDS011;2467;48.142;11.616;2023-11-19T00:22:19;2.10;;;2.00;;
4903;SDS011;2467;48.142;11.616;2023-11-19T00:22:54;1.88;;;1.75;;
4903;SDS011;2467;48.142;11.616;2023-11-19T00:23:27;1.80;;;1.70;;
4903;SDS011;2467;48.142;11.616;2023-11-19T00:23:59;1.75;;;1.65;;
4903;SDS011;2467;48.142;11.616;2023-11-19T00:24:31;2.33;;;2.13;;
4903;SDS011;2467;48.142;11.616;2023-11-19T00:25:04;2.10;;;2.00;;
4903;SDS011;2467;48.142;11.616;2023-11-19T00:25:37;2.35;;;2.15;;
4903;SDS011;2467;48.142;11.616;2023-11-19T00:26:10;2.08;;;1.98;;
4903;SDS011;2467;48.142;11.616;2023-11-19T00:26:43;2.80;;;2.60;;
4903;SDS011;2467;48.142;11.616;2023-11-19T00:27:15;2.53;;;2.33;;
4903;SDS011;2467;48.142;11.616;2023-11-19T00:27:47;3.40;;;2.30;;
4903;SDS011;2467;48.142;11.616;2023-11-19T00:28:19;2.40;;;2.30;;
4903;SDS011;2467;48.142;11.616;2023-11-19T00:28:52;1.95;;;1.85;;
4903;SDS011;2467;48.142;11.616;2023-11-19T00:29:24;2.65;;;2.45;;
4903;SDS011;2467;48.142;11.616;2023-11-19T00:29:56;1.90;;;1.80;;
4903;SDS011;2467;48.142;11.616;2023-11-19T00:30:28;1.85;;;1.75;;
4903;SDS011;2467;48.142;11.616;2023-11-19T00:31:02;2.20;;;2.10;;
4903;SDS011;2467;48.142;11.616;2023-11-19T00:31:34;3.25;;;2.10;;
4903;SDS011;2467;48.142;11.616;2023-11-19T00:32:06;2.13;;;2.03;;
4903;SDS011;2467;48.142;11.616;2023-11-19T00:32:39;2.20;;;2.10;;
4903;SDS011;2467;48.142;11.616;2023-11-19T00:33:12;3.35;;;2.92;;
4903;SDS011;2467;48.142;11.616;2023-11-19T00:33:44;2.70;;;2.50;;
4903;SDS011;2467;48.142;11.616;2023-11-19T00:34:18;2.30;;;2.20;;
4903;SDS011;2467;48.142;11.616;2023-11-19T00:34:52;3.63;;;2.08;;
4903;SDS011;2467;48.142;11.616;2023-11-19T00:35:25;2.40;;;2.22;;
4903;SDS011;2467;48.142;11.616;2023-11-19T00:35:57;2.45;;;2.25;;
4903;SDS011;2467;48.142;11.616;2023-11-19T00:36:29;2.38;;;2.15;;
4903;SDS011;2467;48.142;11.616;2023-11-19T00:37:01;2.80;;;2.60;;
4903;SDS011;2467;48.142;11.616;2023-11-19T00:37:35;2.30;;;2.10;;
4903;SDS011;2467;48.142;11.616;2023-11-19T00:38:07;3.25;;;2.35;;
4903;SDS011;2467;48.142;11.616;2023-11-19T00:38:40;2.28;;;2.17;;
4903;SDS011;2467;48.142;11.616;2023-11-19T00:39:12;2.83;;;2.58;;
4903;SDS011;2467;48.142;11.616;2023-11-19T00:39:46;2.10;;;2.00;;
4903;SDS011;2467;48.142;11.616;2023-11-19T00:40:18;2.67;;;2.47;;
4903;SDS011;2467;48.142;11.616;2023-11-19T00:40:53;2.17;;;1.98;;
4903;SDS011;2467;48.142;11.616;2023-11-19T00:41:25;1.85;;;1.75;;
4903;SDS011;2467;48.142;11.616;2023-11-19T00:41:57;2.55;;;2.35;;
4903;SDS011;2467;48.142;11.616;2023-11-19T00:42:29;2.75;;;2.55;;
4903;SDS011;2467;48.142;11.616;2023-11-19T00:43:01;3.25;;;2.95;;
4903;SDS011;2467;48.142;11.616;2023-11-19T00:43:34;3.58;;;2.90;;
4903;SDS011;2467;48.142;11.616;2023-11-19T00:44:06;2.53;;;2.33;;
4903;SDS011;2467;48.142;11.616;2023-11-19T00:44:38;3.20;;;2.45;;
4903;SDS011;2467;48.142;11.616;2023-11-19T00:45:20;2.63;;;2.42;;
4903;SDS011;2467;48.142;11.616;2023-11-19T00:45:53;2.90;;;2.55;;
4903;SDS011;2467;48.142;11.616;2023-11-19T00:46:25;2.72;;;2.22;;
4903;SDS011;2467;48.142;11.616;2023-11-19T00:46:57;2.75;;;2.55;;
4903;SDS011;2467;48.142;11.616;2023-11-19T00:47:30;2.95;;;2.65;;
4903;SDS011;2467;48.142;11.616;2023-11-19T00:48:04;2.88;;;2.67;;
4903;SDS011;2467;48.142;11.616;2023-11-19T00:48:36;2.70;;;2.50;;
4903;SDS011;2467;48.142;11.616;2023-11-19T00:49:08;2.60;;;2.50;;
4903;SDS011;2467;48.142;11.616;2023-11-19T00:49:43;3.45;;;3.08;;
4903;SDS011;2467;48.142;11.616;2023-11-19T00:50:16;2.40;;;2.20;;
4903;SDS011;2467;48.142;11.616;2023-11-19T00:50:48;3.20;;;2.90;;
4903;SDS011;2467;48.142;11.616;2023-11-19T00:51:20;3.40;;;2.70;;
4903;SDS011;2467;48.142;11.616;2023-11-19T00:51:52;2.58;;;2.38;;
4903;SDS011;2467;48.142;11.616;2023-11-19T00:52:25;2.72;;;2.45;;
4903;SDS011;2467;48.142;11.616;2023-11-19T00:52:57;3.03;;;2.33;;
4903;SDS011;2467;48.142;11.616;2023-11-19T00:53:29;2.28;;;2.17;;
4903;SDS011;2467;48.142;11.616;2023-11-19T00:54:04;2.42;;;2.25;;
4903;SDS011;2467;48.142;11.616;2023-11-19T00:54:36;3.20;;;2.55;;
4903;SDS011;2467;48.142;11.616;2023-11-19T00:55:08;2.75;;;2.55;;
4903;SDS011;2467;48.142;11.616;2023-11-19T00:55:41;2.78;;;2.45;;
4903;SDS011;2467;48.142;11.616;2023-11-19T00:56:18;2.45;;;2.25;;
4903;SDS011;2467;48.142;11.616;2023-11-19T00:56:50;3.88;;;2.70;;
4903;SDS011;2467;48.142;11.616;2023-11-19T00:57:23;3.30;;;3.00;;
4903;SDS011;2467;48.142;11.616;2023-11-19T00:57:55;4.72;;;2.65;;
4903;SDS011;2467;48.142;11.616;2023-11-19T00:58:28;3.25;;;2.95;;
4903;SDS011;2467;48.142;11.616;2023-11-19T00:59:01;3.97;;;3.10;;
4903;SDS011;2467;48.142;11.616;2023-11-19T00:59:32;3.38;;;2.97;;
4903;SDS011;2467;48.142;11.616;2023-11-19T01:00:05;3.13;;;2.92;;
4903;SDS011;2467;48.142;11.616;2023-11-19T01:00:40;2.95;;;2.75;;
4903;SDS011;2467;48.142;11.616;2023-11-19T01:01:14;4.57;;;3.13;;
4903;SDS011;2467;48.142;11.616;2023-11-19T01:01:46;3.08;;;2.78;;
4903;SDS011;2467;48.142;11.616;2023-11-19T01:02:19;3.85;;;2.58;;
4903;SDS011;2467;48.142;11.616;2023-11-19T01:02:51;3.08;;;2.78;;
4903;SDS011;2467;48.142;11.616;2023-11-19T01:03:24;5.65;;;3.88;;
4903;SDS011;2467;48.142;11.616;2023-11-19T01:03:57;3.42;;;3.13;;
4903;SDS011;2467;48.142;11.616;2023-11-19T01:04:29;3.17;;;2.88;;
4903;SDS011;2467;48.142;11.616;2023-11-19T01:05:01;2.70;;;2.50;;
4903;SDS011;2467;48.142;11.616;2023-11-19T01:05:34;3.20;;;2.83;;
4903;SDS011;2467;48.142;11.616;2023-11-19T01:06:06;3.40;;;3.00;;
4903;SDS011;2467;48.142;11.616;2023-11-19T01:06:39;2.60;;;2.25;;
4903;SDS011;2467;48.142;11.616;2023-11-19T01:07:20;4.05;;;3.63;;
4903;SDS011;2467;48.142;11.616;2023-11-19T01:07:53;2.60;;;2.40;;
4903;SDS011;2467;48.142;11.616;2023-11-19T01:08:26;3.13;;;2.83;;
4903;SDS011;2467;48.142;11.616;2023-11-19T01:08:58;2.65;;;2.45;;
4903;SDS011;2467;48.142;11.616;2023-11-19T01:09:31;4.05;;;2.72;;
4903;SDS011;2467;48.142;11.616;2023-11-19T01:10:07;4.22;;;3.70;;
4903;SDS011;2467;48.142;11.616;2023-11-19T01:10:40;3.35;;;3.05;;
4903;SDS011;2467;48.142;11.616;2023-11-19T01:11:19;2.38;;;2.17;;
4903;SDS011;2467;48.142;11.616;2023-11-19T01:11:52;3.38;;;2.50;;
4903;SDS011;2467;48.142;11.616;2023-11-19T01:12:26;3.25;;;2.88;;
4903;SDS011;2467;48.142;11.616;2023-11-19T01:12:58;4.95;;;3.80;;
4903;SDS011;2467;48.142;11.616;2023-11-19T01:13:29;3.03;;;2.63;;
4903;SDS011;2467;48.142;11.616;2023-11-19T01:14:01;3.15;;;2.70;;
4903;SDS011;2467;48.142;11.616;2023-11-19T01:14:34;3.95;;;2.85;;
4903;SDS011;2467;48.142;11.616;2023-11-19T01:15:07;3.63;;;2.85;;
4903;SDS011;2467;48.142;11.616;2023-11-19T01:15:39;3.40;;;3.00;;
4903;SDS011;2467;48.142;11.616;2023-11-19T01:16:12;3.30;;;3.00;;
4903;SDS011;2467;48.142;11.616;2023-11-19T01:16:45;2.60;;;2.40;;
4903;SDS011;2467;48.142;11.616;2023-11-19T01:17:17;3.38;;;3.08;;
4903;SDS011;2467;48.142;11.616;2023-11-19T01:17:49;2.72;;;2.42;;
4903;SDS011;2467;48.142;11.616;2023-11-19T01:18:24;3.70;;;2.55;;
4903;SDS011;2467;48.142;11.616;2023-11-19T01:18:57;3.30;;;2.72;;
4903;SDS011;2467;48.142;11.616;2023-11-19T01:19:47;3.15;;;2.60;;
4903;SDS011;2467;48.142;11.616;2023-11-19T01:20:21;2.33;;;2.13;;
4903;SDS011;2467;48.142;11.616;2023-11-19T01:20:53;2.70;;;2.50;;
4903;SDS011;2467;48.142;11.616;2023-11-19T01:21:26;2.55;;;2.28;;
4903;SDS011;2467;48.142;11.616;2023-11-19T01:21:59;2.60;;;2.40;;
4903;SDS011;2467;48.142;11.616;2023-11-19T01:22:31;2.20;;;2.10;;
4903;SDS011;2467;48.142;11.616;2023-11-19T01:23:03;2.15;;;2.03;;
4903;SDS011;2467;48.142;11.616;2023-11-19T01:23:35;2.65;;;2.35;;
4903;SDS011;2467;48.142;11.616;2023-11-19T01:24:08;2.15;;;1.95;;
4903;SDS011;2467;48.142;11.616;2023-11-19T01:24:42;2.30;;;2.08;;
4903;SDS011;2467;48.142;11.616;2023-11-19T01:25:14;3.08;;;2.25;;
4903;SDS011;2467;48.142;11.616;2023-11-19T01:25:47;2.70;;;2.42;;
4903;SDS011;2467;48.142;11.616;2023-11-19T01:26:19;2.35;;;2.00;;
4903;SDS011;2467;48.142;11.616;2023-11-19T01:26:51;2.72;;;2.53;;
4903;SDS011;2467;48.142;11.616;2023-11-19T01:27:24;2.15;;;1.95;;
4903;SDS011;2467;48.142;11.616;2023-11-19T01:27:57;2.08;;;1.90;;
4903;SDS011;2467;48.142;11.616;2023-11-19T01:28:29;2.30;;;2.00;;
4903;SDS011;2467;48.142;11.616;2023-11-19T01:29:02;2.85;;;2.10;;
4903;SDS011;2467;48.142;11.616;2023-11-19T01:29:35;2.30;;;2.15;;
4903;SDS011;2467;48.142;11.616;2023-11-19T01:30:09;2.30;;;2.10;;
4903;SDS011;2467;48.142;11.616;2023-11-19T01:30:44;2.28;;;2.05;;
4903;SDS011;2467;48.142;11.616;2023-11-19T01:31:16;1.92;;;1.83;;
4903;SDS011;2467;48.142;11.616;2023-11-19T01:31:48;2.40;;;1.95;;
4903;SDS011;2467;48.142;11.616;2023-11-19T01:32:22;3.95;;;3.65;;
4903;SDS011;2467;48.142;11.616;2023-11-19T01:32:55;3.17;;;2.20;;
4903;SDS011;2467;48.142;11.616;2023-11-19T01:33:27;2.33;;;1.80;;
4903;SDS011;2467;48.142;11.616;2023-11-19T01:33:59;2.65;;;2.13;;
4903;SDS011;2467;48.142;11.616;2023-11-19T01:34:32;2.22;;;2.13;;
4903;SDS011;2467;48.142;11.616;2023-11-19T01:35:04;2.17;;;1.88;;
4903;SDS011;2467;48.142;11.616;2023-11-19T01:35:36;3.25;;;2.22;;
4903;SDS011;2467;48.142;11.616;2023-11-19T01:36:09;2.05;;;1.92;;
4903;SDS011;2467;48.142;11.616;2023-11-19T01:36:46;2.45;;;2.22;;
4903;SDS011;2467;48.142;11.616;2023-11-19T01:37:19;2.55;;;2.05;;
4903;SDS011;2467;48.142;11.616;2023-11-19T01:37:52;2.45;;;2.25;;
4903;SDS011;2467;48.142;11.616;2023-11-19T01:38:24;2.20;;;2.00;;
4903;SDS011;2467;48.142;11.616;2023-11-19T01:38:56;2.80;;;2.13;;
4903;SDS011;2467;48.142;11.616;2023-11-19T01:39:28;3.35;;;2.20;;
4903;SDS011;2467;48.142;11.616;2023-11-19T01:40:02;3.28;;;2.17;;
4903;SDS011;2467;48.142;11.616;2023-11-19T01:40:36;2.25;;;2.05;;
4903;SDS011;2467;48.142;11.616;2023-11-19T01:41:08;2.28;;;1.83;;
4903;SDS011;2467;48.142;11.616;2023-11-19T01:41:40;2.80;;;2.13;;
4903;SDS011;2467;48.142;11.616;2023-11-19T01:42:12;3.28;;;3.08;;
4903;SDS011;2467;48.142;11.616;2023-11-19T01:42:44;2.50;;;2.30;;
4903;SDS011;2467;48.142;11.616;2023-11-19T01:43:30;2.90;;;2.40;;
4903;SDS011;2467;48.142;11.616;2023-11-19T01:44:05;2.10;;;1.90;;
4903;SDS011;2467;48.142;11.616;2023-11-19T01:44:37;2.92;;;2.60;;
4903;SDS011;2467;48.142;11.616;2023-11-19T01:45:11;3.15;;;2.20;;
4903;SDS011;2467;48.142;11.616;2023-11-19T01:45:53;3.15;;;1.88;;
4903;SDS011;2467;48.142;11.616;2023-11-19T01:46:25;2.45;;;1.90;;
4903;SDS011;2467;48.142;11.616;2023-11-19T01:46:57;2.53;;;2.20;;
4903;SDS011;2467;48.142;11.616;2023-11-19T01:47:30;3.65;;;2.20;;
4903;SDS011;2467;48.142;11.616;2023-11-19T01:48:02;1.70;;;1.60;;
4903;SDS011;2467;48.142;11.616;2023-11-19T01:48:35;2.22;;;1.50;;
4903;SDS011;2467;48.142;11.616;2023-11-19T01:49:10;3.10;;;2.00;;
4903;SDS011;2467;48.142;11.616;2023-11-19T01:49:44;3.20;;;1.92;;
4903;SDS011;2467;48.142;11.616;2023-11-19T01:50:16;1.90;;;1.80;;
4903;SDS011;2467;48.142;11.616;2023-11-19T01:50:48;2.63;;;1.73;;
4903;SDS011;2467;48.142;11.616;2023-11-19T01:51:33;2.35;;;1.95;;
4903;SDS011;2467;48.142;11.616;2023-11-19T01:52:06;2.85;;;2.25;;
4903;SDS011;2467;48.142;11.616;2023-11-19T01:52:39;2.55;;;1.88;;
4903;SDS011;2467;48.142;11.616;2023-11-19T01:53:12;3.60;;;2.30;;
4903;SDS011;2467;48.142;11.616;2023-11-19T01:53:44;3.78;;;1.90;;
4903;SDS011;2467;48.142;11.616;2023-11-19T01:54:17;2.08;;;1.98;;
4903;SDS011;2467;48.142;11.616;2023-11-19T01:54:49;2.25;;;2.03;;
4903;SDS011;2467;48.142;11.616;2023-11-19T01:55:22;1.70;;;1.60;;
4903;SDS011;2467;48.142;11.616;2023-11-19T01:55:56;1.70;;;1.60;;
4903;SDS011;2467;48.142;11.616;2023-11-19T01:56:29;2.30;;;1.88;;
4903;SDS011;2467;48.142;11.616;2023-11-19T01:57:03;1.70;;;1.60;;
4903;SDS011;2467;48.142;11.616;2023-11-19T01:57:35;1.60;;;1.50;;
4903;SDS011;2467;48.142;11.616;2023-11-19T01:58:08;1.55;;;1.45;;
4903;SDS011;2467;48.142;11.616;2023-11-19T01:58:42;1.50;;;1.40;;
4903;SDS011;2467;48.142;11.616;2023-11-19T01:59:15;1.70;;;1.60;;
4903;SDS011;2467;48.142;11.616;2023-11-19T01:59:48;1.60;;;1.50;;
4903;SDS011;2467;48.142;11.616;2023-11-19T02:00:22;1.70;;;1.60;;
4903;SDS011;2467;48.142;11.616;2023-11-19T02:00:55;1.95;;;1.75;;
4903;SDS011;2467;48.142;11.616;2023-11-19T02:01:28;1.70;;;1.58;;
4903;SDS011;2467;48.142;11.616;2023-11-19T02:02:01;1.52;;;1.42;;
4903;SDS011;2467;48.142;11.616;2023-11-19T02:02:33;1.70;;;1.60;;
4903;SDS011;2467;48.142;11.616;2023-11-19T02:03:07;2.15;;;1.80;;
4903;SDS011;2467;48.142;11.616;2023-11-19T02:03:39;1.75;;;1.65;;
4903;SDS011;2467;48.142;11.616;2023-11-19T02:04:12;2.42;;;2.30;;
4903;SDS011;2467;48.142;11.616;2023-11-19T02:04:45;1.92;;;1.77;;
4903;SDS011;2467;48.142;11.616;2023-11-19T02:05:19;1.90;;;1.80;;
4903;SDS011;2467;48.142;11.616;2023-11-19T02:05:52;1.38;;;1.30;;
4903;SDS011;2467;48.142;11.616;2023-11-19T02:06:24;1.70;;;1.60;;
4903;SDS011;2467;48.142;11.616;2023-11-19T02:06:57;2.05;;;1.90;;
4903;SDS011;2467;48.142;11.616;2023-11-19T02:07:30;1.88;;;1.77;;
4903;SDS011;2467;48.142;11.616;2023-11-19T02:08:03;2.50;;;2.30;;
4903;SDS011;2467;48.142;11.616;2023-11-19T02:08:35;1.75;;;1.65;;
4903;SDS011;2467;48.142;11.616;2023-11-19T02:09:08;2.10;;;1.90;;
4903;SDS011;2467;48.142;11.616;2023-11-19T02:09:41;2.03;;;1.88;;
4903;SDS011;2467;48.142;11.616;2023-11-19T02:10:14;1.67;;;1.33;;
4903;SDS011;2467;48.142;11.616;2023-11-19T02:10:49;1.52;;;1.42;;
4903;SDS011;2467;48.142;11.616;2023-11-19T02:11:21;1.67;;;1.55;;
4903;SDS011;2467;48.142;11.616;2023-11-19T02:11:54;2.05;;;1.70;;
4903;SDS011;2467;48.142;11.616;2023-11-19T02:12:26;2.28;;;1.75;;
4903;SDS011;2467;48.142;11.616;2023-11-19T02:12:59;2.55;;;1.80;;
4903;SDS011;2467;48.142;11.616;2023-11-19T02:13:36;1.77;;;1.67;;
4903;SDS011;2467;48.142;11.616;2023-11-19T02:14:10;1.92;;;1.77;;
4903;SDS011;2467;48.142;11.616;2023-11-19T02:14:42;1.63;;;1.52;;
4903;SDS011;2467;48.142;11.616;2023-11-19T02:15:14;3.13;;;1.88;;
4903;SDS011;2467;48.142;11.616;2023-11-19T02:15:46;2.33;;;1.65;;
4903;SDS011;2467;48.142;11.616;2023-11-19T02:16:19;1.10;;;1.10;;
4903;SDS011;2467;48.142;11.616;2023-11-19T02:16:51;2.75;;;1.65;;
4903;SDS011;2467;48.142;11.616;2023-11-19T02:17:26;1.60;;;1.50;;
4903;SDS011;2467;48.142;11.616;2023-11-19T02:18:50;1.70;;;1.60;;
4903;SDS011;2467;48.142;11.616;2023-11-19T02:19:22;1.40;;;1.30;;
4903;SDS011;2467;48.142;11.616;2023-11-19T02:19:54;1.50;;;1.40;;
4903;SDS011;2467;48.142;11.616;2023-11-19T02:20:26;1.52;;;1.42;;
4903;SDS011;2467;48.142;11.616;2023-11-19T02:20:59;1.65;;;1.55;;
4903;SDS011;2467;48.142;11.616;2023-11-19T02:21:31;1.30;;;1.20;;
4903;SDS011;2467;48.142;11.616;2023-11-19T02:22:03;1.70;;;1.60;;
4903;SDS011;2467;48.142;11.616;2023-11-19T02:22:36;1.90;;;1.63;;
4903;SDS011;2467;48.142;11.616;2023-11-19T02:23:08;1.50;;;1.40;;
4903;SDS011;2467;48.142;11.616;2023-11-19T02:23:40;1.40;;;1.30;;
4903;SDS011;2467;48.142;11.616;2023-11-19T02:24:14;4.10;;;1.88;;
4903;SDS011;2467;48.142;11.616;2023-11-19T02:24:51;1.60;;;1.50;;
4903;SDS011;2467;48.142;11.616;2023-11-19T02:25:29;1.80;;;1.70;;
4903;SDS011;2467;48.142;11.616;2023-11-19T02:26:08;2.05;;;1.85;;
4903;SDS011;2467;48.142;11.616;2023-11-19T02:26:47;2.47;;;2.28;;
4903;SDS011;2467;48.142;11.616;2023-11-19T02:27:25;1.70;;;1.35;;
4903;SDS011;2467;48.142;11.616;2023-11-19T02:28:06;1.33;;;1.23;;
4903;SDS011;2467;48.142;11.616;2023-11-19T02:28:39;1.90;;;1.50;;
4903;SDS011;2467;48.142;11.616;2023-11-19T02:29:14;1.50;;;1.40;;
4903;SDS011;2467;48.142;11.616;2023-11-19T02:29:46;1.52;;;1.40;;
4903;SDS011;2467;48.142;11.616;2023-11-19T02:30:18;1.50;;;1.40;;
4903;SDS011;2467;48.142;11.616;2023-11-19T02:30:50;1.40;;;1.30;;
4903;SDS011;2467;48.142;11.616;2023-11-19T02:31:24;1.98;;;1.48;;
4903;SDS011;2467;48.142;11.616;2023-11-19T02:31:58;1.95;;;1.85;;
4903;SDS011;2467;48.142;11.616;2023-11-19T02:32:30;2.65;;;2.45;;
4903;SDS011;2467;48.142;11.616;2023-11-19T02:33:02;1.50;;;1.40;;
4903;SDS011;2467;48.142;11.616;2023-11-19T02:33:37;1.75;;;1.65;;
4903;SDS011;2467;48.142;11.616;2023-11-19T02:34:10;1.42;;;1.33;;
4903;SDS011;2467;48.142;11.616;2023-11-19T02:34:43;1.35;;;1.25;;
4903;SDS011;2467;48.142;11.616;2023-11-19T02:35:16;1.67;;;1.58;;
4903;SDS011;2467;48.142;11.616;2023-11-19T02:35:48;1.50;;;1.40;;
4903;SDS011;2467;48.142;11.616;2023-11-19T02:36:20;2.50;;;1.73;;
4903;SDS011;2467;48.142;11.616;2023-11-19T02:36:53;2.55;;;1.60;;
4903;SDS011;2467;48.142;11.616;2023-11-19T02:37:25;1.40;;;1.30;;
4903;SDS011;2467;48.142;11.616;2023-11-19T02:37:58;2.90;;;1.50;;
4903;SDS011;2467;48.142;11.616;2023-11-19T02:38:30;1.35;;;1.25;;
4903;SDS011;2467;48.142;11.616;2023-11-19T02:39:03;2.58;;;1.30;;
4903;SDS011;2467;48.142;11.616;2023-11-19T02:39:39;1.63;;;1.52;;
4903;SDS011;2467;48.142;11.616;2023-11-19T02:40:13;1.92;;;1.20;;
4903;SDS011;2467;48.142;11.616;2023-11-19T02:40:45;3.05;;;1.90;;
4903;SDS011;2467;48.142;11.616;2023-11-19T02:41:18;1.55;;;1.45;;
4903;SDS011;2467;48.142;11.616;2023-11-19T02:41:50;1.20;;;1.10;;
4903;SDS011;2467;48.142;11.616;2023-11-19T02:42:24;1.75;;;1.25;;
4903;SDS011;2467;48.142;11.616;2023-11-19T02:42:56;2.08;;;1.45;;
4903;SDS011;2467;48.142;11.616;2023-11-19T02:43:30;1.20;;;1.10;;
4903;SDS011;2467;48.142;11.616;2023-11-19T02:44:04;1.35;;;1.25;;
4903;SDS011;2467;48.142;11.616;2023-11-19T02:44:37;1.48;;;1.38;;
4903;SDS011;2467;48.142;11.616;2023-11-19T02:45:09;1.40;;;1.30;;
4903;SDS011;2467;48.142;11.616;2023-11-19T02:45:45;1.70;;;1.60;;
4903;SDS011;2467;48.142;11.616;2023-11-19T02:46:17;1.90;;;1.80;;
4903;SDS011;2467;48.142;11.616;2023-11-19T02:46:50;1.58;;;1.48;;
4903;SDS011;2467;48.142;11.616;2023-11-19T02:47:23;1.60;;;1.30;;
4903;SDS011;2467;48.142;11.616;2023-11-19T02:47:55;1.50;;;1.40;;
4903;SDS011;2467;48.142;11.616;2023-11-19T02:48:27;1.73;;;1.63;;
4903;SDS011;2467;48.142;11.616;2023-11-19T02:48:59;1.40;;;1.30;;
4903;SDS011;2467;48.142;11.616;2023-11-19T02:49:32;1.38;;;1.27;;
4903;SDS011;2467;48.142;11.616;2023-11-19T02:50:04;1.10;;;1.10;;
4903;SDS011;2467;48.142;11.616;2023-11-19T02:50:38;1.50;;;1.40;;
4903;SDS011;2467;48.142;11.616;2023-11-19T02:51:10;1.88;;;1.17;;
4903;SDS011;2467;48.142;11.616;2023-11-19T02:51:43;1.50;;;1.40;;
4903;SDS011;2467;48.142;11.616;2023-11-19T02:52:15;1.35;;;1.25;;
4903;SDS011;2467;48.142;11.616;2023-11-19T02:52:47;1.25;;;1.15;;
4903;SDS011;2467;48.142;11.616;2023-11-19T02:53:19;1.70;;;1.50;;
4903;SDS011;2467;48.142;11.616;2023-11-19T02:53:53;2.25;;;1.50;;
4903;SDS011;2467;48.142;11.616;2023-11-19T02:54:25;1.40;;;1.30;;
4903;SDS011;2467;48.142;11.616;2023-11-19T02:54:58;1.70;;;1.60;;
4903;SDS011;2467;48.142;11.616;2023-11-19T02:55:31;2.40;;;2.20;;
4903;SDS011;2467;48.142;11.616;2023-11-19T02:56:08;2.22;;;2.05;;
4903;SDS011;2467;48.142;11.616;2023-11-19T02:56:47;1.50;;;1.40;;
4903;SDS011;2467;48.142;11.616;2023-11-19T02:57:30;1.60;;;1.50;;
4903;SDS011;2467;48.142;11.616;2023-11-19T02:58:03;1.65;;;1.55;;
4903;SDS011;2467;48.142;11.616;2023-11-19T02:58:44;1.42;;;1.33;;
4903;SDS011;2467;48.142;11.616;2023-11-19T02:59:17;1.40;;;1.30;;
4903;SDS011;2467;48.142;11.616;2023-11-19T02:59:58;1.25;;;1.15;;
4903;SDS011;2467;48.142;11.616;2023-11-19T03:00:31;2.45;;;1.30;;
4903;SDS011;2467;48.142;11.616;2023-11-19T03:01:07;1.40;;;1.25;;
4903;SDS011;2467;48.142;11.616;2023-11-19T03:01:44;1.10;;;1.05;;
4903;SDS011;2467;48.142;11.616;2023-11-19T03:02:21;1.70;;;1.60;;
4903;SDS011;2467;48.142;11.616;2023-11-19T03:02:53;1.20;;;1.10;;
4903;SDS011;2467;48.142;11.616;2023-11-19T03:03:30;1.30;;;1.20;;
4903;SDS011;2467;48.142;11.616;2023-11-19T03:04:09;2.00;;;1.80;;
4903;SDS011;2467;48.142;11.616;2023-11-19T03:04:43;1.70;;;1.60;;
4903;SDS011;2467;48.142;11.616;2023-11-19T03:05:17;1.20;;;1.20;;
4903;SDS011;2467;48.142;11.616;2023-11-19T03:05:51;1.40;;;1.30;;
4903;SDS011;2467;48.142;11.616;2023-11-19T03:06:22;1.50;;;1.40;;
4903;SDS011;2467;48.142;11.616;2023-11-19T03:06:54;1.40;;;1.30;;
4903;SDS011;2467;48.142;11.616;2023-11-19T03:07:26;1.50;;;1.40;;
4903;SDS011;2467;48.142;11.616;2023-11-19T03:07:58;1.98;;;1.88;;
4903;SDS011;2467;48.142;11.616;2023-11-19T03:08:31;1.30;;;1.20;;
4903;SDS011;2467;48.142;11.616;2023-11-19T03:09:03;1.60;;;1.50;;
4903;SDS011;2467;48.142;11.616;2023-11-19T03:09:41;2.38;;;2.17;;
4903;SDS011;2467;48.142;11.616;2023-11-19T03:10:15;3.90;;;1.92;;
4903;SDS011;2467;48.142;11.616;2023-11-19T03:10:48;1.50;;;1.40;;
4903;SDS011;2467;48.142;11.616;2023-11-19T03:11:20;1.50;;;1.40;;
4903;SDS011;2467;48.142;11.616;2023-11-19T03:11:52;1.50;;;1.40;;
4903;SDS011;2467;48.142;11.616;2023-11-19T03:12:24;2.95;;;1.25;;
4903;SDS011;2467;48.142;11.616;2023-11-19T03:12:57;1.40;;;1.30;;
4903;SDS011;2467;48.142;11.616;2023-11-19T03:13:33;1.30;;;1.20;;
4903;SDS011;2467;48.142;11.616;2023-11-19T03:14:06;1.67;;;1.58;;
4903;SDS011;2467;48.142;11.616;2023-11-19T03:14:38;1.30;;;1.10;;
4903;SDS011;2467;48.142;11.616;2023-11-19T03:15:11;1.35;;;1.25;;
4903;SDS011;2467;48.142;11.616;2023-11-19T03:15:43;1.38;;;1.27;;
4903;SDS011;2467;48.142;11.616;2023-11-19T03:16:16;2.42;;;1.20;;
4903;SDS011;2467;48.142;11.616;2023-11-19T03:16:49;1.20;;;1.15;;
4903;SDS011;2467;48.142;11.616;2023-11-19T03:17:22;1.60;;;1.50;;
4903;SDS011;2467;48.142;11.616;2023-11-19T03:17:55;1.38;;;1.27;;
4903;SDS011;2467;48.142;11.616;2023-11-19T03:18:27;1.40;;;1.30;;
4903;SDS011;2467;48.142;11.616;2023-11-19T03:19:00;1.55;;;1.45;;
4903;SDS011;2467;48.142;11.616;2023-11-19T03:19:32;1.60;;;1.33;;
4903;SDS011;2467;48.142;11.616;2023-11-19T03:20:04;1.35;;;1.25;;
4903;SDS011;2467;48.142;11.616;2023-11-19T03:20:38;1.30;;;1.20;;
4903;SDS011;2467;48.142;11.616;2023-11-19T03:21:11;1.95;;;1.20;;
4903;SDS011;2467;48.142;11.616;2023-11-19T03:21:43;2.10;;;1.35;;
4903;SDS011;2467;48.142;11.616;2023-11-19T03:22:16;1.55;;;1.45;;
4903;SDS011;2467;48.142;11.616;2023-11-19T03:22:47;1.05;;;0.98;;
4903;SDS011;2467;48.142;11.616;2023-11-19T03:23:22;1.17;;;1.15;;
4903;SDS011;2467;48.142;11.616;2023-11-19T03:23:54;1.35;;;1.23;;
4903;SDS011;2467;48.142;11.616;2023-11-19T03:24:26;1.40;;;1.30;;